Archival Weather

Norman Y Mineta San Jose Intl

San Jose, California (KSJC)

Report from: Saturday, February 17, 2024 11:53 AM PST
Current time: Friday, June 21, 2024 2:03 AM PDT

Current weather – Weather history – Daily summaries
Weather forecast

Present weatherLight rain
Temperature14.4°C (57.9°F)
Dew point8.9°C (48.0°F)
Winds 15 kts (7.7 m/s, 17.3 mph) Southeast (140°)
Visibility10 mi. (16.1 km)
Clouds Scattered clouds 3,000 ft. (914 m)
Ceiling: Broken clouds 7,000 ft. (2,134 m)
Overcast 9,000 ft. (2,743 m)
Altimeter29.95 in.Hg (1014 mB)
PrecipitiationTrace
Relative humidity70 %
Density altitude63 ft. (19 m)
Sea-level pressure101.4 kPa (1014 mB, 29.95 in.Hg)
Remarks Automated weather observing station with precipitation discriminator
Flight conditions Visual Meteorological Conditions
Raw dataKSJC 171953Z 14015KT 10SM -RA SCT030 BKN070 OVC090 14/09 A2995 RMK AO2 SLP141 P0000 T01440089
An error has occurred. This application may no longer respond until reloaded. Reload 🗙